createdAt,value
2023-05-19T00:00:07.075Z,70.42
2023-05-19T00:02:39.823Z,70.10
2023-05-19T00:05:10.465Z,70.36
2023-05-19T00:07:39.512Z,70.26
2023-05-19T00:10:08.233Z,70.68
2023-05-19T00:12:36.785Z,70.59
2023-05-19T00:15:07.491Z,70.96
2023-05-19T00:17:35.029Z,70.77
2023-05-19T00:20:07.535Z,70.98
2023-05-19T00:22:35.127Z,70.89
2023-05-19T00:25:02.699Z,71.21
2023-05-19T00:27:31.194Z,70.95
2023-05-19T00:29:58.465Z,71.04
2023-05-19T00:32:27.195Z,71.32
2023-05-19T00:34:54.597Z,70.89
2023-05-19T00:37:22.886Z,71.09
2023-05-19T00:39:50.387Z,70.83
2023-05-19T00:42:17.909Z,71.07
2023-05-19T00:44:45.226Z,70.95
2023-05-19T00:47:13.039Z,70.90
2023-05-19T00:49:41.702Z,71.00
2023-05-19T00:52:09.414Z,70.90
2023-05-19T00:54:37.023Z,71.00
2023-05-19T00:57:04.922Z,71.13
2023-05-19T00:59:32.811Z,71.08
2023-05-19T01:02:00.345Z,71.23
2023-05-19T01:04:27.897Z,71.51
2023-05-19T01:06:57.335Z,71.24
2023-05-19T01:09:25.067Z,71.48
2023-05-19T01:11:52.690Z,71.68
2023-05-19T01:14:21.649Z,71.73
2023-05-19T01:16:55.015Z,72.44
2023-05-19T01:19:47.272Z,72.50
2023-05-19T01:22:32.233Z,72.17
2023-05-19T01:25:17.785Z,72.18
2023-05-19T01:28:12.735Z,72.07
2023-05-19T01:30:43.321Z,71.95
2023-05-19T01:33:14.407Z,71.99
2023-05-19T01:35:43.558Z,71.86
2023-05-19T01:38:12.947Z,71.91
2023-05-19T01:40:42.488Z,71.87
2023-05-19T01:43:12.010Z,71.84
2023-05-19T01:45:41.918Z,71.76
2023-05-19T01:48:11.185Z,71.88
2023-05-19T01:50:40.079Z,72.12
2023-05-19T01:53:07.638Z,72.00
2023-05-19T01:55:36.242Z,72.16
2023-05-19T01:58:15.227Z,72.22
2023-05-19T02:00:57.069Z,71.89
2023-05-19T02:03:40.644Z,71.86
2023-05-19T02:06:31.384Z,71.98
2023-05-19T02:09:04.414Z,71.79
2023-05-19T02:11:38.013Z,71.95
2023-05-19T02:14:12.850Z,72.30
2023-05-19T02:16:46.541Z,72.21
2023-05-19T02:19:22.608Z,73.38
2023-05-19T02:21:50.343Z,73.24
2023-05-19T02:24:18.436Z,73.58
2023-05-19T02:26:45.927Z,73.48
2023-05-19T02:29:13.487Z,73.50
2023-05-19T02:31:42.252Z,73.65
2023-05-19T02:34:09.688Z,74.16
2023-05-19T02:36:41.132Z,74.14
2023-05-19T02:39:09.625Z,73.98
2023-05-19T02:41:36.941Z,73.68
2023-05-19T02:44:05.082Z,73.87
2023-05-19T02:46:33.174Z,74.41
2023-05-19T02:49:02.207Z,74.66
2023-05-19T02:51:29.558Z,74.44
2023-05-19T02:53:56.956Z,74.31
2023-05-19T02:56:24.799Z,74.42
2023-05-19T02:58:52.887Z,74.16
2023-05-19T03:01:22.252Z,73.27
2023-05-19T03:03:49.892Z,73.44
2023-05-19T03:06:18.965Z,73.30
2023-05-19T03:08:46.343Z,73.16
2023-05-19T03:11:13.772Z,72.30
2023-05-19T03:13:41.194Z,72.38
2023-05-19T03:16:08.771Z,72.13
2023-05-19T03:18:36.502Z,72.01
2023-05-19T03:21:04.178Z,71.52
2023-05-19T03:23:32.956Z,71.46
2023-05-19T03:26:00.287Z,71.08
2023-05-19T03:28:27.712Z,71.07
2023-05-19T03:30:55.361Z,70.54
2023-05-19T03:33:28.230Z,70.61
2023-05-19T03:35:57.082Z,70.55
2023-05-19T03:38:24.747Z,70.39
2023-05-19T03:40:59.262Z,70.12
2023-05-19T03:43:26.711Z,70.08
2023-05-19T03:46:02.372Z,69.81
2023-05-19T03:49:02.212Z,69.73
2023-05-19T03:51:52.732Z,69.57
2023-05-19T03:54:35.832Z,69.49
2023-05-19T03:57:05.357Z,69.63
2023-05-19T03:59:33.267Z,69.37
2023-05-19T04:02:00.686Z,69.61
2023-05-19T04:04:29.099Z,69.41
2023-05-19T04:06:56.618Z,69.49
2023-05-19T04:09:26.763Z,69.28
2023-05-19T04:11:55.719Z,68.92
2023-05-19T04:14:26.691Z,68.93
2023-05-19T04:16:54.427Z,69.13
2023-05-19T04:19:21.854Z,68.93
2023-05-19T04:21:49.713Z,69.04
2023-05-19T04:24:17.350Z,68.98
2023-05-19T04:26:47.302Z,68.70
2023-05-19T04:29:18.330Z,68.86
2023-05-19T04:31:47.678Z,69.20
2023-05-19T04:34:15.116Z,68.87
2023-05-19T04:36:42.778Z,69.17
2023-05-19T04:39:12.411Z,69.37
2023-05-19T04:41:44.911Z,69.61
2023-05-19T04:44:13.700Z,69.70
2023-05-19T04:46:42.876Z,69.41
2023-05-19T04:49:14.900Z,69.62
2023-05-19T04:51:42.526Z,69.58
2023-05-19T04:54:10.337Z,69.61
2023-05-19T04:56:38.190Z,69.82
2023-05-19T04:59:07.028Z,69.48
2023-05-19T05:01:34.800Z,69.87
2023-05-19T05:04:02.990Z,69.91
2023-05-19T05:06:32.921Z,70.11
2023-05-19T05:09:00.837Z,70.19
2023-05-19T05:11:29.646Z,70.22
2023-05-19T05:14:00.379Z,70.56
2023-05-19T05:16:30.223Z,70.36
2023-05-19T05:18:59.690Z,70.47
2023-05-19T05:21:28.491Z,70.51
2023-05-19T05:23:57.974Z,70.94
2023-05-19T05:26:33.429Z,70.49
2023-05-19T05:29:02.000Z,70.38
2023-05-19T05:31:30.090Z,70.45
2023-05-19T05:33:59.024Z,70.35
2023-05-19T05:36:31.612Z,70.59
2023-05-19T05:39:02.968Z,70.90
2023-05-19T05:41:35.394Z,71.22
2023-05-19T05:44:08.455Z,71.31
2023-05-19T05:46:35.902Z,71.06
2023-05-19T05:49:04.547Z,71.34
2023-05-19T05:51:33.135Z,71.05
2023-05-19T05:54:03.159Z,71.39
2023-05-19T05:56:38.203Z,71.29
2023-05-19T05:59:08.506Z,71.65
2023-05-19T06:01:36.875Z,72.01
2023-05-19T06:04:06.924Z,71.86
2023-05-19T06:06:36.115Z,72.19
2023-05-19T06:09:05.606Z,72.24
2023-05-19T06:11:33.125Z,72.45
2023-05-19T06:14:01.105Z,72.26
2023-05-19T06:17:03.950Z,72.21
2023-05-19T06:19:32.028Z,72.35
2023-05-19T06:21:59.399Z,72.18
2023-05-19T06:24:28.230Z,72.21
2023-05-19T06:26:55.798Z,72.20
2023-05-19T06:29:23.126Z,72.46
2023-05-19T06:31:52.167Z,72.47
2023-05-19T06:34:21.118Z,72.19
2023-05-19T06:36:48.564Z,72.28
2023-05-19T06:39:17.093Z,72.79
2023-05-19T06:41:45.833Z,72.72
2023-05-19T06:44:25.943Z,72.50
2023-05-19T06:46:53.473Z,72.97
2023-05-19T06:49:21.154Z,73.17
2023-05-19T06:51:49.422Z,72.94
2023-05-19T06:54:16.844Z,72.89
2023-05-19T06:56:45.817Z,73.03
2023-05-19T06:59:13.841Z,73.03
2023-05-19T07:01:41.343Z,72.86
2023-05-19T07:04:08.944Z,72.95
2023-05-19T07:06:36.415Z,72.70
2023-05-19T07:09:05.633Z,72.43
2023-05-19T07:11:33.717Z,72.11
2023-05-19T07:14:02.616Z,71.86
2023-05-19T07:16:32.535Z,72.02
2023-05-19T07:19:00.354Z,71.50
2023-05-19T07:21:27.803Z,71.13
2023-05-19T07:23:55.209Z,71.09
2023-05-19T07:26:22.781Z,71.25
2023-05-19T07:28:50.292Z,70.84
2023-05-19T07:31:19.564Z,70.67
2023-05-19T07:33:47.039Z,70.39
2023-05-19T07:36:14.735Z,70.04
2023-05-19T07:38:42.313Z,70.00
2023-05-19T07:41:09.859Z,69.77
2023-05-19T07:43:37.153Z,69.67
2023-05-19T07:46:06.188Z,69.40
2023-05-19T07:48:35.120Z,69.34
2023-05-19T07:51:02.982Z,68.89
2023-05-19T07:53:30.422Z,68.82
2023-05-19T07:55:58.830Z,68.53
2023-05-19T07:58:26.910Z,68.13
2023-05-19T08:00:56.851Z,68.07
2023-05-19T08:03:24.493Z,67.99
2023-05-19T08:05:53.735Z,67.89
2023-05-19T08:08:23.370Z,67.80
2023-05-19T08:10:50.828Z,67.60
2023-05-19T08:13:18.215Z,67.87
2023-05-19T08:15:45.742Z,67.73
2023-05-19T08:18:13.413Z,67.64
2023-05-19T08:20:41.044Z,67.56
2023-05-19T08:23:10.015Z,67.51
2023-05-19T08:25:37.332Z,67.54
2023-05-19T08:28:04.993Z,67.27
2023-05-19T08:30:32.572Z,67.18
2023-05-19T08:33:00.337Z,66.78
2023-05-19T08:35:27.730Z,66.40
2023-05-19T08:37:55.226Z,66.02
2023-05-19T08:40:24.259Z,65.44
2023-05-19T08:42:51.898Z,64.90
2023-05-19T08:45:19.503Z,64.46
2023-05-19T08:47:47.599Z,64.24
2023-05-19T08:50:21.454Z,63.55
2023-05-19T08:52:53.623Z,63.28
2023-05-19T08:58:22.834Z,62.20
2023-05-19T09:00:51.430Z,61.08
2023-05-19T09:05:51.452Z,58.82
2023-05-19T09:08:19.050Z,57.68
2023-05-19T09:10:47.857Z,56.20
2023-05-19T09:13:15.265Z,55.33
2023-05-19T09:15:44.760Z,54.54
2023-05-19T09:18:14.480Z,53.03
2023-05-19T09:20:43.016Z,52.81
2023-05-19T09:23:14.131Z,51.88
2023-05-19T09:25:49.412Z,50.57
2023-05-19T09:28:24.142Z,50.15
2023-05-19T09:30:59.302Z,48.91
2023-05-19T09:33:27.119Z,48.07
2023-05-19T09:35:55.601Z,47.50
2023-05-19T09:38:24.495Z,46.71
2023-05-19T09:40:56.601Z,45.68
2023-05-19T09:43:24.030Z,45.32
2023-05-19T09:45:55.843Z,44.78
2023-05-19T09:48:26.167Z,45.27
2023-05-19T09:50:54.721Z,44.88
2023-05-19T09:53:22.807Z,44.97
2023-05-19T09:55:57.696Z,44.50
2023-05-19T09:58:26.590Z,44.05
2023-05-19T10:00:57.132Z,43.62
2023-05-19T10:03:26.415Z,43.32
2023-05-19T10:05:54.115Z,43.18
2023-05-19T10:08:24.163Z,42.95
2023-05-19T10:10:53.520Z,42.33
2023-05-19T10:13:22.222Z,41.82
2023-05-19T10:15:58.373Z,41.64
2023-05-19T10:18:29.690Z,41.69
2023-05-19T10:20:59.234Z,41.76
2023-05-19T10:23:26.778Z,41.55
2023-05-19T10:26:00.138Z,41.57
2023-05-19T10:28:35.959Z,41.37
2023-05-19T10:31:06.883Z,41.24
2023-05-19T10:33:47.416Z,41.23
2023-05-19T10:36:33.135Z,40.79
2023-05-19T10:39:06.414Z,40.89
2023-05-19T10:41:45.101Z,40.55
2023-05-19T10:44:23.468Z,40.55
2023-05-19T10:46:51.703Z,40.28
2023-05-19T10:49:25.292Z,40.43
2023-05-19T10:51:56.820Z,40.28
2023-05-19T10:54:43.630Z,40.45
2023-05-19T10:57:17.125Z,40.34
2023-05-19T10:59:45.140Z,40.28
2023-05-19T11:02:42.152Z,40.18
2023-05-19T11:05:11.318Z,39.98
2023-05-19T11:07:42.528Z,40.04
2023-05-19T11:10:10.860Z,39.94
2023-05-19T11:12:45.125Z,39.68
2023-05-19T11:15:14.431Z,39.86
2023-05-19T11:17:45.299Z,40.12
2023-05-19T11:20:22.698Z,39.88
2023-05-19T11:23:04.773Z,39.74
2023-05-19T11:25:47.101Z,39.26
2023-05-19T11:28:19.883Z,39.34
2023-05-19T11:30:52.135Z,39.23
2023-05-19T11:33:21.107Z,39.36
2023-05-19T11:35:50.541Z,39.60
2023-05-19T11:38:19.403Z,39.77
2023-05-19T11:40:48.557Z,39.86
2023-05-19T11:43:17.319Z,39.93
2023-05-19T11:45:45.980Z,39.72
2023-05-19T11:48:13.590Z,39.60
2023-05-19T11:50:41.774Z,39.54
2023-05-19T11:53:13.378Z,39.50
2023-05-19T11:55:44.536Z,39.55
2023-05-19T11:58:12.193Z,39.83
2023-05-19T12:00:41.954Z,39.83
2023-05-19T12:03:09.944Z,39.59
2023-05-19T12:05:42.956Z,39.61
2023-05-19T12:08:11.336Z,39.52
2023-05-19T12:10:39.761Z,39.31
2023-05-19T12:13:10.566Z,38.87
2023-05-19T12:15:39.030Z,39.04
2023-05-19T12:18:08.650Z,39.16
2023-05-19T12:20:36.596Z,38.69
2023-05-19T12:23:04.658Z,38.71
2023-05-19T12:25:32.672Z,38.90
2023-05-19T12:28:03.199Z,38.88
2023-05-19T12:30:33.020Z,38.62
2023-05-19T12:33:02.964Z,38.66
2023-05-19T12:35:34.235Z,38.80
2023-05-19T12:38:06.673Z,38.59
2023-05-19T12:40:35.797Z,38.69
2023-05-19T12:43:04.188Z,38.45
2023-05-19T12:45:34.790Z,38.44
2023-05-19T12:48:04.432Z,38.51
2023-05-19T12:50:34.553Z,38.54
2023-05-19T12:53:02.685Z,38.39
2023-05-19T12:55:30.527Z,38.27
2023-05-19T12:57:58.477Z,38.36
2023-05-19T13:00:30.974Z,38.11
2023-05-19T13:03:01.042Z,38.12
2023-05-19T13:05:29.384Z,37.76
2023-05-19T13:08:00.424Z,37.52
2023-05-19T13:10:28.894Z,37.49
2023-05-19T13:12:56.808Z,37.54
2023-05-19T13:15:26.477Z,37.66
2023-05-19T13:17:55.197Z,37.24
2023-05-19T13:20:22.611Z,36.90
2023-05-19T13:22:50.675Z,36.62
2023-05-19T13:25:19.655Z,36.28
2023-05-19T13:27:48.415Z,36.41
2023-05-19T13:30:19.331Z,35.92
2023-05-19T13:32:46.982Z,35.77
2023-05-19T13:35:16.625Z,35.53
2023-05-19T13:37:44.527Z,35.14
2023-05-19T13:40:13.565Z,35.13
2023-05-19T13:42:42.338Z,35.13
2023-05-19T13:45:10.445Z,35.19
2023-05-19T13:47:38.866Z,35.47
2023-05-19T13:50:07.747Z,35.61
2023-05-19T13:52:35.050Z,35.73
2023-05-19T13:55:02.637Z,35.77
2023-05-19T13:57:31.337Z,35.81
2023-05-19T14:00:03.450Z,36.01
2023-05-19T14:02:40.891Z,35.78
2023-05-19T14:05:09.560Z,35.86
2023-05-19T14:07:37.240Z,35.85
2023-05-19T14:10:06.106Z,35.75
2023-05-19T14:12:39.754Z,35.00
2023-05-19T14:15:16.239Z,34.89
2023-05-19T14:17:43.677Z,35.31
2023-05-19T14:20:12.282Z,35.67
2023-05-19T14:22:39.875Z,35.47
2023-05-19T14:25:08.549Z,35.62
2023-05-19T14:27:35.996Z,35.67
2023-05-19T14:30:03.653Z,35.64
2023-05-19T14:32:33.842Z,35.61
2023-05-19T14:35:01.424Z,35.69
2023-05-19T14:37:32.430Z,35.55
2023-05-19T14:40:00.196Z,35.47
2023-05-19T14:42:27.675Z,35.58
2023-05-19T14:44:55.143Z,35.84
2023-05-19T14:47:22.586Z,35.61
2023-05-19T14:49:51.611Z,35.73
2023-05-19T14:52:19.042Z,35.39
2023-05-19T14:54:46.737Z,35.48
2023-05-19T14:57:14.420Z,35.44
2023-05-19T14:59:42.050Z,35.19
2023-05-19T15:02:09.492Z,35.28
2023-05-19T15:04:36.934Z,34.96
2023-05-19T15:07:10.478Z,34.72
2023-05-19T15:09:38.516Z,34.69
2023-05-19T15:12:06.343Z,34.37
2023-05-19T15:14:34.094Z,34.37
2023-05-19T15:17:01.470Z,34.12
2023-05-19T15:19:29.105Z,34.01
2023-05-19T15:21:56.662Z,33.65
2023-05-19T15:24:25.987Z,33.37
2023-05-19T15:26:54.426Z,33.47
2023-05-19T15:29:21.781Z,33.64
2023-05-19T15:31:51.023Z,33.49
2023-05-19T15:34:18.636Z,33.65
2023-05-19T15:36:46.150Z,34.13
2023-05-19T15:39:13.777Z,34.49
2023-05-19T15:41:42.766Z,34.71
2023-05-19T15:44:10.189Z,35.03
2023-05-19T15:46:39.097Z,34.94
2023-05-19T15:49:06.499Z,35.33
2023-05-19T15:51:34.245Z,35.64
2023-05-19T15:54:01.600Z,35.77
2023-05-19T15:56:29.177Z,36.04
2023-05-19T15:58:58.034Z,36.17
2023-05-19T16:01:26.581Z,36.28
2023-05-19T16:03:54.457Z,36.47
2023-05-19T16:06:22.216Z,36.87
2023-05-19T16:08:49.840Z,36.68
2023-05-19T16:11:18.393Z,36.89
2023-05-19T16:13:45.855Z,37.04
2023-05-19T16:16:14.783Z,36.98
2023-05-19T16:18:44.287Z,36.97
2023-05-19T16:21:11.934Z,37.22
2023-05-19T16:23:39.500Z,37.41
2023-05-19T16:26:06.816Z,37.57
2023-05-19T16:28:34.286Z,37.67
2023-05-19T16:31:01.780Z,37.77
2023-05-19T16:33:30.750Z,38.01
2023-05-19T16:35:58.411Z,38.09
2023-05-19T16:38:26.837Z,38.03
2023-05-19T16:40:54.171Z,38.23
2023-05-19T16:43:21.651Z,38.42
2023-05-19T16:45:49.148Z,38.28
2023-05-19T16:48:16.675Z,38.30
2023-05-19T16:50:48.063Z,38.54
2023-05-19T16:53:15.610Z,38.42
2023-05-19T16:55:42.923Z,38.67
2023-05-19T16:58:11.832Z,38.63
2023-05-19T17:00:39.422Z,38.83
2023-05-19T17:03:07.099Z,38.75
2023-05-19T17:05:36.305Z,38.79
2023-05-19T17:08:05.583Z,38.67
2023-05-19T17:10:33.213Z,38.96
2023-05-19T17:13:00.715Z,39.22
2023-05-19T17:15:28.022Z,39.03
2023-05-19T17:17:55.458Z,39.41
2023-05-19T17:20:22.743Z,39.59
2023-05-19T17:22:50.266Z,39.60
2023-05-19T17:25:19.054Z,39.86
2023-05-19T17:27:46.541Z,40.08
2023-05-19T17:30:14.181Z,40.32
2023-05-19T17:32:42.104Z,40.54
2023-05-19T17:35:10.129Z,40.76
2023-05-19T17:37:37.792Z,41.20
2023-05-19T17:40:06.298Z,41.47
2023-05-19T17:42:35.147Z,41.21
2023-05-19T17:45:05.720Z,41.49
2023-05-19T17:47:33.321Z,41.78
2023-05-19T17:50:00.759Z,41.85
2023-05-19T17:52:29.294Z,42.47
2023-05-19T17:54:57.265Z,42.52
2023-05-19T17:57:26.552Z,42.42
2023-05-19T17:59:56.217Z,42.92
2023-05-19T18:02:24.249Z,42.83
2023-05-19T18:04:52.334Z,42.68
2023-05-19T18:07:21.841Z,42.97
2023-05-19T18:09:51.576Z,43.29
2023-05-19T18:12:19.030Z,43.32
2023-05-19T18:14:46.405Z,43.85
2023-05-19T18:17:15.404Z,43.85
2023-05-19T18:19:42.803Z,43.85
2023-05-19T18:22:13.025Z,44.30
2023-05-19T18:24:40.464Z,44.12
2023-05-19T18:27:08.358Z,44.67
2023-05-19T18:29:35.710Z,44.54
2023-05-19T18:32:03.429Z,45.01
2023-05-19T18:34:32.217Z,45.37
2023-05-19T18:36:59.576Z,45.07
2023-05-19T18:39:29.166Z,45.25
2023-05-19T18:41:56.976Z,45.46
2023-05-19T18:44:24.408Z,45.43
2023-05-19T18:46:52.027Z,45.54
2023-05-19T18:49:20.073Z,45.79
2023-05-19T18:51:49.859Z,46.21
2023-05-19T18:54:17.493Z,45.90
2023-05-19T18:56:45.021Z,46.00
2023-05-19T18:59:13.882Z,46.10
2023-05-19T19:01:41.498Z,46.27
2023-05-19T19:04:09.203Z,46.30
2023-05-19T19:06:36.662Z,46.68
2023-05-19T19:09:05.944Z,46.78
2023-05-19T19:11:33.280Z,46.82
2023-05-19T19:14:01.618Z,46.98
2023-05-19T19:16:29.325Z,47.17
2023-05-19T19:18:56.933Z,47.04
2023-05-19T19:21:24.584Z,47.17
2023-05-19T19:23:53.857Z,47.23
2023-05-19T19:26:24.115Z,47.57
2023-05-19T19:28:51.504Z,47.46
2023-05-19T19:31:18.885Z,47.68
2023-05-19T19:33:46.609Z,47.71
2023-05-19T19:36:14.030Z,47.93
2023-05-19T19:38:41.436Z,47.84
2023-05-19T19:41:08.859Z,47.97
2023-05-19T19:43:37.664Z,48.25
2023-05-19T19:46:07.165Z,48.22
2023-05-19T19:48:35.032Z,48.45
2023-05-19T19:51:02.605Z,48.51
2023-05-19T19:53:30.056Z,48.77
2023-05-19T19:55:58.403Z,49.11
2023-05-19T19:58:26.833Z,49.42
2023-05-19T20:00:59.531Z,49.76
2023-05-19T20:03:27.927Z,49.68
2023-05-19T20:05:59.432Z,49.57
2023-05-19T20:08:27.193Z,50.00
2023-05-19T20:10:54.679Z,50.03
2023-05-19T20:13:22.083Z,50.16
2023-05-19T20:15:49.802Z,50.43
2023-05-19T20:18:18.646Z,50.22
2023-05-19T20:20:45.976Z,50.79
2023-05-19T20:23:13.527Z,50.80
2023-05-19T20:25:53.662Z,50.95
2023-05-19T20:28:29.652Z,51.00
2023-05-19T20:30:57.065Z,50.64
2023-05-19T20:33:26.035Z,50.91
2023-05-19T20:35:53.436Z,50.87
2023-05-19T20:38:20.915Z,50.97
2023-05-19T20:40:48.781Z,51.24
2023-05-19T20:43:16.314Z,50.80
2023-05-19T20:45:44.565Z,50.98
2023-05-19T20:48:12.380Z,51.40
2023-05-19T20:50:41.645Z,51.46
2023-05-19T20:53:09.099Z,50.92
2023-05-19T20:55:38.005Z,51.33
2023-05-19T20:58:05.702Z,51.38
2023-05-19T21:00:33.768Z,51.11
2023-05-19T21:03:03.790Z,51.57
2023-05-19T21:05:31.838Z,51.13
2023-05-19T21:08:01.244Z,51.61
2023-05-19T21:10:28.681Z,51.52
2023-05-19T21:12:58.511Z,51.60
2023-05-19T21:15:27.117Z,51.71
2023-05-19T21:17:54.564Z,51.55
2023-05-19T21:20:22.263Z,51.45
2023-05-19T21:22:49.669Z,51.89
2023-05-19T21:25:18.682Z,51.76
2023-05-19T21:27:47.629Z,51.56
2023-05-19T21:30:14.962Z,51.95
2023-05-19T21:32:42.361Z,52.16
2023-05-19T21:35:09.858Z,52.17
2023-05-19T21:37:37.421Z,52.64
2023-05-19T21:40:05.842Z,52.52
2023-05-19T21:42:34.797Z,52.94
2023-05-19T21:45:02.619Z,52.81
2023-05-19T21:47:33.942Z,52.58
2023-05-19T21:50:01.266Z,53.10
2023-05-19T21:52:31.999Z,52.72
2023-05-19T21:54:59.519Z,52.98
2023-05-19T21:57:26.929Z,53.52
2023-05-19T21:59:55.811Z,53.64
2023-05-19T22:02:23.111Z,53.51
2023-05-19T22:04:50.958Z,53.46
2023-05-19T22:07:18.468Z,53.37
2023-05-19T22:09:48.192Z,53.82
2023-05-19T22:12:16.223Z,54.19
2023-05-19T22:14:43.892Z,54.26
2023-05-19T22:17:12.550Z,54.03
2023-05-19T22:19:39.911Z,54.43
2023-05-19T22:22:13.912Z,54.25
2023-05-19T22:24:42.162Z,54.30
2023-05-19T22:27:10.129Z,54.17
2023-05-19T22:29:38.965Z,54.00
2023-05-19T22:32:07.890Z,54.44
2023-05-19T22:34:36.909Z,54.06
2023-05-19T22:37:05.089Z,54.06
2023-05-19T22:39:32.768Z,54.32
2023-05-19T22:42:00.238Z,54.43
2023-05-19T22:44:27.611Z,54.15
2023-05-19T22:46:55.332Z,54.52
2023-05-19T22:49:27.512Z,54.69
2023-05-19T22:51:56.244Z,54.68
2023-05-19T22:54:23.480Z,54.27
2023-05-19T22:56:51.075Z,54.55
2023-05-19T22:59:18.582Z,55.20
2023-05-19T23:01:46.852Z,55.04
2023-05-19T23:04:14.776Z,55.77
2023-05-19T23:06:42.064Z,55.19
2023-05-19T23:09:10.820Z,55.98
2023-05-19T23:11:38.247Z,55.91
2023-05-19T23:14:05.820Z,55.81
2023-05-19T23:16:33.400Z,56.29
2023-05-19T23:19:01.095Z,56.24
2023-05-19T23:21:30.123Z,56.29
2023-05-19T23:23:57.720Z,56.73
2023-05-19T23:26:27.057Z,56.82
2023-05-19T23:28:54.364Z,56.64
2023-05-19T23:31:21.768Z,57.29
2023-05-19T23:33:49.211Z,56.66
2023-05-19T23:36:16.763Z,57.27
2023-05-19T23:38:44.232Z,56.98
2023-05-19T23:41:11.664Z,57.13
2023-05-19T23:43:41.129Z,57.32
2023-05-19T23:46:08.702Z,56.96
2023-05-19T23:48:36.792Z,57.37
2023-05-19T23:51:04.302Z,57.16
2023-05-19T23:53:32.029Z,57.56
2023-05-19T23:55:59.502Z,57.34
2023-05-19T23:58:27.142Z,57.29
